Buckley Air Force Base Aurora US
ICAO: KBKF
IATA: BFK
Category: Medium
Scheduled Services: No

Elevation: 5662 ft
TransAlt. 18000 ft.

Airport Communications:
DENVER APP/DEP:128.45
ATIS:119.675
GND/CLNC DEL:121.6
PMSV METRO:22.845
PTD:37.22
TWR:121

KBKF Zoom In..

Runways:

(A) RW 14 length 11006 ft width 150 ft
---- / hdg 140

(B) RW 32 length 11006 ft width 150 ft
ILS 109.70 / hdg 320

Location; KBKF
Day. 24 / Time. 01.58 Zulu
* Altimeter: 30.25
* Temperature: -04° c. -24.8°f.
* Wind from: 130° Speed 11 kn.
Dewpoint: -11° c.
Visibility: 10 Statute Miles.
Clouds: Clear (automated report).

KBKF 240158Z 13011KT 10SM CLR M04/M11 A3025 RMK AO2A SLP277 T10421106


Wind From 130°
Speed 11 kn.

YouTube Music Video
 
jpsmedia.com for Web Design  worldairports.se 2018   terms of use